Time;durP1;ratioP1;P1;durP2;ratioP2;P2;SDS_P1;SDS_P2;PMS_P1;PMS_P2;Temp;Humidity;BMP_temperature;BMP_pressure;BME280_temperature;BME280_humidity;BME280_pressure;Samples;Min_cycle;Max_cycle;Signal;HPM_P1;HPM_P2
2022/03/06 00:01:41;;;;;;;;;;;20.20;38.60;;;;;;5109165;27;19919;-46
2022/03/06 00:04:07;;;;;;;;;;;20.20;38.60;;;;;;5106452;28;19927;-44
2022/03/06 00:06:34;;;;;;;;;;;20.10;38.50;;;;;;5107652;27;19959;-46
2022/03/06 00:09:01;;;;;;;;;;;20.10;38.50;;;;;;5124094;28;19945;-43
2022/03/06 00:11:29;;;;;;;;;;;20.10;38.50;;;;;;5107087;27;19976;-42
2022/03/06 00:13:56;;;;;;;;;;;20.20;38.70;;;;;;5108339;28;19972;-42
2022/03/06 00:16:22;;;;;;;;;;;20.20;38.70;;;;;;5105684;28;19919;-45
2022/03/06 00:18:49;;;;;;;;;;;20.20;38.70;;;;;;5110639;28;19923;-43
2022/03/06 00:21:16;;;;;;;;;;;20.20;38.70;;;;;;5108049;28;19984;-42
2022/03/06 00:23:42;;;;;;;;;;;20.10;38.60;;;;;;5106989;27;20271;-44
2022/03/06 00:26:09;;;;;;;;;;;20.20;38.70;;;;;;5124107;27;20272;-43
2022/03/06 00:28:37;;;;;;;;;;;20.20;38.70;;;;;;5111751;27;19919;-45
2022/03/06 00:31:05;;;;;;;;;;;20.20;38.70;;;;;;5111495;27;20417;-43
2022/03/06 00:33:31;;;;;;;;;;;20.20;38.70;;;;;;5109540;27;19935;-47
2022/03/06 00:35:58;;;;;;;;;;;20.20;38.70;;;;;;5229193;22;20039;-45
2022/03/06 00:38:25;;;;;;;;;;;20.20;38.80;;;;;;5037536;28;19932;-45
2022/03/06 00:40:51;;;;;;;;;;;20.20;38.80;;;;;;5061334;28;20006;-44
2022/03/06 00:43:18;;;;;;;;;;;20.20;38.80;;;;;;5042191;28;19924;-44
2022/03/06 00:45:46;;;;;;;;;;;20.20;38.80;;;;;;5056004;28;19930;-44
2022/03/06 00:48:12;;;;;;;;;;;20.20;38.80;;;;;;5041702;28;19924;-48
2022/03/06 00:50:39;;;;;;;;;;;20.20;38.80;;;;;;5043113;28;20057;-47
2022/03/06 00:53:06;;;;;;;;;;;20.20;38.80;;;;;;5047560;28;20364;-44
2022/03/06 00:55:33;;;;;;;;;;;20.20;38.80;;;;;;5062005;28;20013;-44
2022/03/06 00:58:05;;;;;;;;;;;20.20;38.90;;;;;;5057382;28;20007;-43
2022/03/06 01:00:34;;;;;;;;;;;20.20;38.80;;;;;;5038255;28;19932;-47
2022/03/06 01:03:02;;;;;;;;;;;20.20;38.80;;;;;;5040861;28;19975;-44
2022/03/06 01:05:29;;;;;;;;;;;20.20;38.80;;;;;;5060799;28;20324;-46
2022/03/06 01:07:55;;;;;;;;;;;20.20;38.90;;;;;;5061173;28;19920;-44
2022/03/06 01:10:22;;;;;;;;;;;20.20;38.80;;;;;;5038994;28;19966;-46
2022/03/06 01:12:49;;;;;;;;;;;20.20;38.80;;;;;;5043096;28;20289;-43
2022/03/06 01:15:16;;;;;;;;;;;20.20;38.80;;;;;;5044240;28;19932;-44
2022/03/06 01:17:42;;;;;;;;;;;20.20;38.80;;;;;;5060476;28;19924;-48
2022/03/06 01:20:11;;;;;;;;;;;20.20;38.90;;;;;;5040733;28;20357;-42
2022/03/06 01:22:38;;;;;;;;;;;20.20;38.90;;;;;;5044172;28;20279;-46
2022/03/06 01:25:05;;;;;;;;;;;20.20;38.90;;;;;;5040637;28;20389;-44
2022/03/06 01:27:32;;;;;;;;;;;20.20;38.90;;;;;;5039102;28;19932;-42
2022/03/06 01:29:59;;;;;;;;;;;20.20;38.90;;;;;;5054926;28;19925;-46
2022/03/06 01:32:25;;;;;;;;;;;20.20;38.90;;;;;;5039583;28;19931;-42
2022/03/06 01:34:52;;;;;;;;;;;20.20;38.90;;;;;;5056750;28;20002;-45
2022/03/06 01:37:20;;;;;;;;;;;20.20;38.90;;;;;;5038545;28;19973;-42
2022/03/06 01:39:47;;;;;;;;;;;20.20;38.90;;;;;;5062256;28;19926;-47
2022/03/06 01:42:14;;;;;;;;;;;20.20;38.90;;;;;;5040668;28;19928;-45
2022/03/06 01:44:40;;;;;;;;;;;20.20;38.90;;;;;;5038435;28;20380;-44
2022/03/06 01:47:07;;;;;;;;;;;20.20;39.00;;;;;;5055204;28;19972;-44
2022/03/06 01:49:34;;;;;;;;;;;20.20;39.00;;;;;;5060889;28;19921;-46
2022/03/06 01:52:00;;;;;;;;;;;20.20;39.00;;;;;;5053191;28;20357;-43
2022/03/06 01:54:29;;;;;;;;;;;20.20;39.00;;;;;;5052784;28;19947;-46
2022/03/06 01:56:56;;;;;;;;;;;20.20;38.90;;;;;;5041260;28;19964;-42
2022/03/06 01:59:23;;;;;;;;;;;20.20;38.90;;;;;;5035929;28;19920;-43
2022/03/06 02:01:50;;;;;;;;;;;20.20;39.00;;;;;;5040328;28;19921;-42
2022/03/06 02:04:17;;;;;;;;;;;20.20;39.00;;;;;;5037362;28;19920;-47
2022/03/06 02:06:44;;;;;;;;;;;20.20;39.00;;;;;;5056935;28;20055;-43
2022/03/06 02:09:11;;;;;;;;;;;20.20;39.00;;;;;;5053310;28;20463;-45
2022/03/06 02:11:39;;;;;;;;;;;20.20;39.00;;;;;;5038216;28;19935;-46
2022/03/06 02:14:06;;;;;;;;;;;20.20;39.00;;;;;;5038198;28;19921;-45
2022/03/06 02:16:33;;;;;;;;;;;20.20;39.00;;;;;;5040632;28;19927;-45
2022/03/06 02:19:00;;;;;;;;;;;20.20;39.00;;;;;;5035520;28;20179;-45
2022/03/06 02:21:28;;;;;;;;;;;20.20;39.00;;;;;;5057933;28;20002;-46
2022/03/06 02:23:55;;;;;;;;;;;20.20;39.20;;;;;;5050881;28;19968;-45
2022/03/06 02:26:21;;;;;;;;;;;20.20;39.00;;;;;;5038164;28;19928;-45
2022/03/06 02:28:48;;;;;;;;;;;20.20;39.00;;;;;;5036441;28;19928;-46
2022/03/06 02:31:15;;;;;;;;;;;20.20;39.00;;;;;;5047804;28;20015;-43
2022/03/06 02:33:41;;;;;;;;;;;20.20;39.00;;;;;;5035920;28;19944;-42
2022/03/06 02:36:08;;;;;;;;;;;20.20;39.00;;;;;;5029417;28;19921;-44
2022/03/06 02:38:36;;;;;;;;;;;20.20;39.00;;;;;;5046004;28;19974;-42
2022/03/06 02:41:03;;;;;;;;;;;20.20;39.00;;;;;;5039918;28;20274;-46
2022/03/06 02:43:30;;;;;;;;;;;20.20;39.00;;;;;;5039293;28;19931;-44
2022/03/06 02:45:57;;;;;;;;;;;20.20;39.00;;;;;;5055820;28;19926;-50
2022/03/06 02:48:24;;;;;;;;;;;20.20;39.00;;;;;;5034013;28;19924;-43
2022/03/06 02:50:51;;;;;;;;;;;20.20;39.00;;;;;;5042816;28;19920;-45
2022/03/06 02:53:19;;;;;;;;;;;20.20;39.00;;;;;;5036396;28;19928;-47
2022/03/06 02:55:47;;;;;;;;;;;20.20;39.00;;;;;;5056163;28;19920;-45
2022/03/06 02:58:14;;;;;;;;;;;20.20;39.00;;;;;;5055525;28;19970;-46
2022/03/06 03:00:43;;;;;;;;;;;20.20;39.00;;;;;;5034492;28;19932;-47
2022/03/06 03:03:09;;;;;;;;;;;20.20;39.00;;;;;;5037573;28;20159;-42
2022/03/06 03:05:36;;;;;;;;;;;20.20;39.00;;;;;;5037057;28;19925;-43
2022/03/06 03:08:03;;;;;;;;;;;20.20;39.10;;;;;;5035654;28;19960;-46
2022/03/06 03:10:29;;;;;;;;;;;20.20;39.00;;;;;;5043148;28;19936;-49
2022/03/06 03:12:57;;;;;;;;;;;20.20;39.10;;;;;;5055208;28;19920;-42
2022/03/06 03:15:24;;;;;;;;;;;20.20;39.10;;;;;;5036908;28;19927;-42
2022/03/06 03:17:51;;;;;;;;;;;20.20;39.10;;;;;;5053641;28;20106;-44
2022/03/06 03:20:18;;;;;;;;;;;20.20;39.10;;;;;;5039021;28;19924;-44
2022/03/06 03:22:45;;;;;;;;;;;20.20;39.10;;;;;;5051986;28;19921;-44
2022/03/06 03:25:11;;;;;;;;;;;20.20;39.10;;;;;;5053008;28;19950;-44
2022/03/06 03:27:38;;;;;;;;;;;20.20;39.10;;;;;;5035859;28;19985;-43
2022/03/06 03:30:07;;;;;;;;;;;20.20;39.10;;;;;;5055789;28;19947;-42
2022/03/06 03:32:34;;;;;;;;;;;20.20;39.10;;;;;;5051672;28;19932;-42
2022/03/06 03:35:01;;;;;;;;;;;20.20;39.10;;;;;;5035260;28;19927;-43
2022/03/06 03:37:28;;;;;;;;;;;20.20;39.10;;;;;;5038791;28;19970;-42
2022/03/06 03:39:55;;;;;;;;;;;20.20;39.10;;;;;;5034681;28;19920;-47
2022/03/06 03:42:21;;;;;;;;;;;20.20;39.10;;;;;;5038426;28;20556;-42
2022/03/06 03:44:48;;;;;;;;;;;20.20;39.10;;;;;;5037022;28;20329;-42
2022/03/06 03:47:16;;;;;;;;;;;20.20;39.10;;;;;;5056426;28;19936;-44
2022/03/06 03:49:42;;;;;;;;;;;20.20;39.10;;;;;;5038337;28;19925;-42
2022/03/06 03:52:09;;;;;;;;;;;20.20;39.10;;;;;;5052028;28;19921;-42
2022/03/06 03:54:36;;;;;;;;;;;20.20;39.20;;;;;;5041575;28;19931;-42
2022/03/06 03:57:04;;;;;;;;;;;20.20;39.70;;;;;;5034629;28;20450;-43
2022/03/06 03:59:31;;;;;;;;;;;20.20;39.10;;;;;;5045214;28;19921;-43
2022/03/06 04:01:57;;;;;;;;;;;20.20;39.10;;;;;;5034592;28;19924;-43
2022/03/06 04:04:26;;;;;;;;;;;20.20;39.20;;;;;;5037587;28;20015;-42
2022/03/06 04:06:52;;;;;;;;;;;20.20;39.20;;;;;;5057899;28;19924;-46
2022/03/06 04:09:19;;;;;;;;;;;20.20;39.20;;;;;;5039967;28;19930;-44
2022/03/06 04:11:46;;;;;;;;;;;20.20;39.20;;;;;;5042152;28;20288;-44
2022/03/06 04:14:13;;;;;;;;;;;20.20;39.10;;;;;;5046177;28;19925;-43
2022/03/06 04:16:39;;;;;;;;;;;20.20;39.10;;;;;;5054432;28;19929;-43
2022/03/06 04:19:07;;;;;;;;;;;20.20;39.10;;;;;;5056593;28;20023;-44
2022/03/06 04:21:35;;;;;;;;;;;20.20;39.20;;;;;;5044446;28;19939;-47
2022/03/06 04:24:02;;;;;;;;;;;20.20;39.20;;;;;;5056542;28;19924;-44
2022/03/06 04:26:28;;;;;;;;;;;20.20;39.20;;;;;;5062406;28;19931;-45
2022/03/06 04:28:55;;;;;;;;;;;20.20;39.20;;;;;;5060323;28;19982;-44
2022/03/06 04:31:23;;;;;;;;;;;20.20;39.20;;;;;;5036560;28;20496;-45
2022/03/06 04:33:49;;;;;;;;;;;20.20;39.20;;;;;;5040521;28;19994;-46
2022/03/06 04:36:16;;;;;;;;;;;20.20;39.20;;;;;;5040171;28;19928;-44
2022/03/06 04:38:44;;;;;;;;;;;20.20;39.20;;;;;;5042422;28;19959;-46
2022/03/06 04:41:11;;;;;;;;;;;20.20;39.20;;;;;;5036249;28;19921;-44
2022/03/06 04:43:38;;;;;;;;;;;20.20;39.30;;;;;;5036062;28;19975;-44
2022/03/06 04:46:04;;;;;;;;;;;20.20;39.20;;;;;;5039087;28;19982;-43
2022/03/06 04:48:31;;;;;;;;;;;20.20;39.20;;;;;;5060397;28;19920;-47
2022/03/06 04:50:58;;;;;;;;;;;20.20;39.20;;;;;;5039443;28;20023;-46
2022/03/06 04:53:25;;;;;;;;;;;20.20;39.20;;;;;;5040062;28;19921;-47
2022/03/06 04:55:53;;;;;;;;;;;20.20;39.20;;;;;;5040426;28;20281;-46
2022/03/06 04:58:20;;;;;;;;;;;20.20;39.30;;;;;;5058035;28;20011;-43
2022/03/06 05:00:46;;;;;;;;;;;20.20;39.30;;;;;;5056362;28;19925;-46
2022/03/06 05:03:13;;;;;;;;;;;20.20;39.30;;;;;;5037456;28;19921;-45
2022/03/06 05:05:40;;;;;;;;;;;20.20;39.30;;;;;;5045061;28;19947;-47
2022/03/06 05:08:06;;;;;;;;;;;20.20;39.30;;;;;;5046398;28;19956;-47
2022/03/06 05:10:33;;;;;;;;;;;20.20;39.20;;;;;;5039717;28;19974;-46
2022/03/06 05:13:01;;;;;;;;;;;20.20;39.30;;;;;;5059502;28;19929;-47
2022/03/06 05:15:28;;;;;;;;;;;20.20;39.30;;;;;;5038841;28;19939;-48
2022/03/06 05:17:55;;;;;;;;;;;20.20;39.20;;;;;;5057920;28;19964;-45
2022/03/06 05:20:22;;;;;;;;;;;20.20;39.30;;;;;;5053483;28;19934;-45
2022/03/06 05:22:49;;;;;;;;;;;20.20;39.30;;;;;;5037613;28;20532;-49
2022/03/06 05:25:16;;;;;;;;;;;20.20;39.30;;;;;;5041136;28;19921;-43
2022/03/06 05:27:43;;;;;;;;;;;20.20;39.20;;;;;;5043212;28;19924;-44
2022/03/06 05:30:12;;;;;;;;;;;20.20;39.30;;;;;;5036258;28;20369;-44
2022/03/06 05:32:39;;;;;;;;;;;20.20;39.20;;;;;;5037266;28;20268;-50
2022/03/06 05:35:06;;;;;;;;;;;20.20;39.30;;;;;;5057630;28;20105;-46
2022/03/06 05:37:33;;;;;;;;;;;20.20;39.20;;;;;;5056312;28;19920;-44
2022/03/06 05:40:00;;;;;;;;;;;20.20;39.30;;;;;;5056680;28;19978;-47
2022/03/06 05:42:26;;;;;;;;;;;20.20;39.30;;;;;;5037757;28;20056;-45
2022/03/06 05:44:53;;;;;;;;;;;20.20;39.30;;;;;;5041163;28;20409;-44
2022/03/06 05:47:21;;;;;;;;;;;20.20;39.30;;;;;;5040269;28;20011;-46
2022/03/06 05:49:47;;;;;;;;;;;20.20;39.30;;;;;;5039785;28;20388;-44
2022/03/06 05:52:14;;;;;;;;;;;20.20;39.30;;;;;;5035142;28;19981;-45
2022/03/06 05:54:41;;;;;;;;;;;20.20;39.30;;;;;;5056033;28;20023;-47
2022/03/06 05:57:07;;;;;;;;;;;20.20;39.30;;;;;;5042590;28;19929;-44
2022/03/06 05:59:34;;;;;;;;;;;20.20;39.30;;;;;;5055427;28;19932;-47
2022/03/06 06:02:01;;;;;;;;;;;20.20;39.30;;;;;;5037925;28;19927;-48
2022/03/06 06:04:29;;;;;;;;;;;20.20;39.30;;;;;;5037989;28;19943;-47
2022/03/06 06:06:56;;;;;;;;;;;20.20;39.40;;;;;;5042634;28;19932;-43
2022/03/06 06:09:23;;;;;;;;;;;20.20;39.30;;;;;;5058858;28;19943;-45
2022/03/06 06:11:49;;;;;;;;;;;20.20;39.40;;;;;;5039674;28;20298;-44
2022/03/06 06:14:16;;;;;;;;;;;20.20;39.40;;;;;;5057103;28;19925;-42
2022/03/06 06:16:43;;;;;;;;;;;20.20;39.40;;;;;;5039398;28;20372;-44
2022/03/06 06:19:10;;;;;;;;;;;20.20;39.40;;;;;;5041573;28;20386;-42
2022/03/06 06:21:42;;;;;;;;;;;20.20;39.40;;;;;;5059718;28;20019;-45
2022/03/06 06:24:10;;;;;;;;;;;20.20;39.40;;;;;;5035039;28;19920;-45
2022/03/06 06:26:36;;;;;;;;;;;20.20;39.40;;;;;;5045740;28;19920;-42
2022/03/06 06:29:03;;;;;;;;;;;20.20;39.40;;;;;;5036874;28;20416;-46
2022/03/06 06:31:30;;;;;;;;;;;20.20;39.30;;;;;;5037940;28;20005;-45
2022/03/06 06:33:57;;;;;;;;;;;20.20;39.40;;;;;;5057169;28;20007;-44
2022/03/06 06:36:24;;;;;;;;;;;20.20;39.30;;;;;;5053584;28;19983;-44
2022/03/06 06:38:52;;;;;;;;;;;20.20;39.40;;;;;;5019900;28;20313;-47
2022/03/06 06:41:19;;;;;;;;;;;20.20;39.30;;;;;;5055481;28;19925;-42
2022/03/06 06:43:45;;;;;;;;;;;20.20;39.40;;;;;;5039828;28;20277;-45
2022/03/06 06:46:12;;;;;;;;;;;20.20;39.40;;;;;;5037912;28;19925;-48
2022/03/06 06:48:39;;;;;;;;;;;20.20;39.40;;;;;;5055901;28;20022;-43
2022/03/06 06:51:05;;;;;;;;;;;20.20;39.40;;;;;;5038030;28;19933;-44
2022/03/06 06:53:32;;;;;;;;;;;20.20;39.40;;;;;;5038038;28;19927;-44
2022/03/06 06:56:00;;;;;;;;;;;20.20;40.00;;;;;;5042347;28;19943;-47
2022/03/06 06:58:27;;;;;;;;;;;20.20;39.40;;;;;;5052390;28;20350;-47
2022/03/06 07:00:54;;;;;;;;;;;20.20;39.40;;;;;;5041743;28;20271;-49
2022/03/06 07:03:20;;;;;;;;;;;20.20;39.40;;;;;;5037126;28;19928;-46
2022/03/06 07:05:48;;;;;;;;;;;20.20;39.40;;;;;;5038519;28;19968;-45
2022/03/06 07:08:14;;;;;;;;;;;20.20;39.40;;;;;;5035559;28;20047;-47
2022/03/06 07:10:41;;;;;;;;;;;20.20;39.40;;;;;;5037261;28;19932;-43
2022/03/06 07:13:09;;;;;;;;;;;20.20;39.40;;;;;;5030620;28;19928;-43
2022/03/06 07:15:36;;;;;;;;;;;20.20;39.40;;;;;;5035163;28;19924;-44
2022/03/06 07:18:03;;;;;;;;;;;20.20;39.40;;;;;;5054659;28;20014;-44
2022/03/06 07:20:29;;;;;;;;;;;20.20;39.50;;;;;;5036688;28;20034;-44
2022/03/06 07:22:56;;;;;;;;;;;20.20;39.40;;;;;;5034971;28;19920;-47
2022/03/06 07:25:23;;;;;;;;;;;20.20;39.40;;;;;;5036938;28;19968;-45
2022/03/06 07:27:50;;;;;;;;;;;20.20;39.50;;;;;;5032917;28;19928;-46
2022/03/06 07:30:18;;;;;;;;;;;20.20;39.50;;;;;;5056470;28;19931;-44
2022/03/06 07:32:45;;;;;;;;;;;20.20;39.40;;;;;;5039416;28;20019;-45
2022/03/06 07:35:11;;;;;;;;;;;20.20;39.40;;;;;;5040966;28;19959;-47
2022/03/06 07:37:38;;;;;;;;;;;20.20;39.40;;;;;;5054470;28;19931;-48
2022/03/06 07:40:05;;;;;;;;;;;20.20;39.50;;;;;;5042358;28;19973;-46
2022/03/06 07:42:32;;;;;;;;;;;20.20;39.40;;;;;;5039854;28;20288;-44
2022/03/06 07:44:59;;;;;;;;;;;20.20;39.50;;;;;;5056444;28;20288;-44
2022/03/06 07:47:27;;;;;;;;;;;20.20;39.40;;;;;;5041259;28;20390;-46
2022/03/06 07:49:54;;;;;;;;;;;20.20;39.40;;;;;;5044160;28;19975;-50
2022/03/06 07:52:21;;;;;;;;;;;20.20;39.50;;;;;;5042203;28;20381;-43
2022/03/06 07:54:47;;;;;;;;;;;20.20;39.40;;;;;;5040416;28;19920;-42
2022/03/06 07:57:14;;;;;;;;;;;20.20;39.50;;;;;;5042184;28;20306;-47
2022/03/06 07:59:41;;;;;;;;;;;20.20;39.40;;;;;;5047170;28;19952;-42
2022/03/06 08:02:08;;;;;;;;;;;20.20;39.50;;;;;;5034915;28;19956;-47
2022/03/06 08:04:36;;;;;;;;;;;20.20;39.40;;;;;;5060489;28;19921;-42
2022/03/06 08:07:03;;;;;;;;;;;20.20;39.50;;;;;;5040872;28;19921;-43
2022/03/06 08:09:29;;;;;;;;;;;20.20;39.50;;;;;;5062318;28;20285;-44
2022/03/06 08:11:56;;;;;;;;;;;20.20;39.50;;;;;;5057097;28;19974;-44
2022/03/06 08:14:23;;;;;;;;;;;20.20;39.50;;;;;;5060564;28;20014;-43
2022/03/06 08:16:49;;;;;;;;;;;20.20;39.50;;;;;;5038405;28;19947;-43
2022/03/06 08:19:16;;;;;;;;;;;20.20;39.50;;;;;;5041725;28;19920;-45
2022/03/06 08:21:45;;;;;;;;;;;20.20;39.50;;;;;;5044016;28;19920;-49
2022/03/06 08:24:11;;;;;;;;;;;20.20;39.50;;;;;;5043026;28;19970;-46
2022/03/06 08:26:38;;;;;;;;;;;20.20;39.50;;;;;;5062511;28;19920;-45
2022/03/06 08:29:05;;;;;;;;;;;20.20;39.50;;;;;;5061721;28;20407;-47
2022/03/06 08:31:32;;;;;;;;;;;20.20;39.50;;;;;;5057204;28;19976;-43
2022/03/06 08:33:58;;;;;;;;;;;20.20;39.50;;;;;;5044730;28;19944;-44
2022/03/06 08:36:25;;;;;;;;;;;20.20;39.50;;;;;;5043723;28;20370;-44
2022/03/06 08:38:53;;;;;;;;;;;20.20;39.50;;;;;;5043024;28;19931;-47
2022/03/06 08:41:20;;;;;;;;;;;20.20;39.50;;;;;;5062185;28;19921;-42
2022/03/06 08:43:47;;;;;;;;;;;20.20;39.50;;;;;;5052453;28;20021;-45
2022/03/06 08:46:13;;;;;;;;;;;20.20;39.50;;;;;;5053376;28;20011;-47
2022/03/06 08:48:41;;;;;;;;;;;20.20;39.50;;;;;;5050835;28;19921;-46
2022/03/06 08:51:07;;;;;;;;;;;20.20;39.50;;;;;;5037846;28;20401;-46
2022/03/06 08:53:34;;;;;;;;;;;20.20;39.40;;;;;;5036859;28;20011;-44
2022/03/06 08:56:02;;;;;;;;;;;20.20;39.50;;;;;;5053469;28;19924;-46
2022/03/06 08:58:29;;;;;;;;;;;20.20;39.50;;;;;;5042031;28;19920;-46
2022/03/06 09:00:56;;;;;;;;;;;20.20;39.50;;;;;;5045252;28;19969;-44
2022/03/06 09:03:22;;;;;;;;;;;20.20;39.50;;;;;;5035573;28;19928;-42
2022/03/06 09:05:49;;;;;;;;;;;20.20;39.40;;;;;;5042741;28;19920;-43
2022/03/06 09:08:16;;;;;;;;;;;20.20;39.40;;;;;;5041458;28;19952;-44
2022/03/06 09:10:42;;;;;;;;;;;20.20;39.50;;;;;;5060041;28;19943;-44
2022/03/06 09:13:11;;;;;;;;;;;20.20;39.50;;;;;;5060916;28;19967;-42
2022/03/06 09:15:37;;;;;;;;;;;20.20;39.50;;;;;;5042342;28;19935;-46
2022/03/06 09:18:04;;;;;;;;;;;20.20;39.40;;;;;;5042752;28;20006;-45
2022/03/06 09:20:31;;;;;;;;;;;20.20;39.50;;;;;;5046165;28;19924;-48
2022/03/06 09:22:58;;;;;;;;;;;20.20;39.50;;;;;;5065732;28;19927;-45
2022/03/06 09:25:24;;;;;;;;;;;20.20;39.50;;;;;;5049842;28;20015;-49
2022/03/06 09:27:51;;;;;;;;;;;20.20;39.40;;;;;;5063398;28;19921;-47
2022/03/06 09:30:19;;;;;;;;;;;20.20;39.40;;;;;;5065352;28;19931;-46
2022/03/06 09:32:46;;;;;;;;;;;20.20;39.40;;;;;;5037028;28;19921;-44
2022/03/06 09:35:13;;;;;;;;;;;20.20;39.50;;;;;;5053762;28;20389;-44
2022/03/06 09:37:39;;;;;;;;;;;20.20;39.50;;;;;;5036710;28;19926;-41
2022/03/06 09:40:07;;;;;;;;;;;20.20;39.50;;;;;;5033994;28;19921;-46
2022/03/06 09:42:34;;;;;;;;;;;20.20;39.50;;;;;;5039408;28;20316;-47
2022/03/06 09:45:03;;;;;;;;;;;20.20;39.50;;;;;;5034212;28;20209;-45
2022/03/06 09:47:31;;;;;;;;;;;20.20;39.50;;;;;;5038966;28;19964;-44
2022/03/06 09:49:57;;;;;;;;;;;20.20;39.50;;;;;;5059326;28;19924;-43
2022/03/06 09:52:24;;;;;;;;;;;20.30;39.60;;;;;;5034377;28;19966;-43
2022/03/06 09:54:51;;;;;;;;;;;20.20;39.50;;;;;;5056494;28;19927;-47
2022/03/06 09:57:18;;;;;;;;;;;20.30;39.50;;;;;;5040867;28;19972;-47
2022/03/06 09:59:45;;;;;;;;;;;20.20;39.50;;;;;;5039409;28;19928;-44
2022/03/06 10:02:12;;;;;;;;;;;20.30;39.60;;;;;;5046547;28;19975;-46
2022/03/06 10:04:40;;;;;;;;;;;20.30;39.60;;;;;;5039251;28;19921;-48
2022/03/06 10:07:07;;;;;;;;;;;20.20;39.50;;;;;;5035375;28;19920;-46
2022/03/06 10:09:34;;;;;;;;;;;20.20;39.50;;;;;;5034913;28;19925;-48
2022/03/06 10:12:01;;;;;;;;;;;20.20;39.50;;;;;;5044368;28;20011;-48
2022/03/06 10:14:38;;;;;;;;;;;20.20;39.50;;;;;;5041094;28;19966;-50
2022/03/06 10:17:08;;;;;;;;;;;20.20;39.50;;;;;;5054860;28;19929;-47
2022/03/06 10:19:49;;;;;;;;;;;20.20;39.50;;;;;;5041665;28;20302;-45
2022/03/06 10:22:15;;;;;;;;;;;20.20;39.50;;;;;;5039955;28;19924;-42
2022/03/06 10:24:46;;;;;;;;;;;20.20;39.50;;;;;;5036034;28;20281;-45
2022/03/06 10:27:12;;;;;;;;;;;20.30;39.50;;;;;;5057485;28;19974;-47
2022/03/06 10:29:39;;;;;;;;;;;20.20;39.50;;;;;;5042712;28;20043;-43
2022/03/06 10:32:07;;;;;;;;;;;20.30;39.60;;;;;;5051466;28;20339;-42
2022/03/06 10:34:34;;;;;;;;;;;20.20;39.50;;;;;;5051585;28;20007;-45
2022/03/06 10:37:02;;;;;;;;;;;20.30;39.60;;;;;;5034995;28;19920;-48
2022/03/06 10:39:30;;;;;;;;;;;20.30;39.60;;;;;;5061200;28;19920;-43
2022/03/06 10:41:58;;;;;;;;;;;20.30;39.60;;;;;;5040140;28;20001;-43
2022/03/06 10:44:42;;;;;;;;;;;20.30;39.60;;;;;;5043761;28;19966;-44
2022/03/06 10:47:09;;;;;;;;;;;20.30;39.60;;;;;;5047025;28;19927;-45
2022/03/06 10:49:37;;;;;;;;;;;20.30;40.20;;;;;;5043545;28;20453;-42
2022/03/06 10:52:16;;;;;;;;;;;20.30;39.60;;;;;;5037275;28;19921;-42
2022/03/06 10:54:49;;;;;;;;;;;20.30;39.60;;;;;;5057372;28;19928;-43
2022/03/06 10:57:16;;;;;;;;;;;20.30;39.60;;;;;;5055660;28;19932;-50
2022/03/06 10:59:43;;;;;;;;;;;20.30;39.60;;;;;;5044285;28;19928;-43
2022/03/06 11:04:53;;;;;;;;;;;20.30;39.60;;;;;;5041001;28;19924;-48
2022/03/06 11:07:21;;;;;;;;;;;20.30;39.60;;;;;;5036782;28;20378;-45
2022/03/06 11:09:50;;;;;;;;;;;20.30;39.60;;;;;;5039609;28;19979;-45
2022/03/06 11:12:17;;;;;;;;;;;20.30;40.20;;;;;;5057693;28;19924;-48
2022/03/06 11:14:43;;;;;;;;;;;20.30;39.60;;;;;;5052920;28;19971;-43
2022/03/06 11:17:10;;;;;;;;;;;20.30;39.60;;;;;;5038019;28;19959;-43
2022/03/06 11:19:38;;;;;;;;;;;20.30;39.60;;;;;;5042942;28;20017;-45
2022/03/06 11:22:08;;;;;;;;;;;20.30;39.70;;;;;;5041994;28;19928;-47
2022/03/06 11:24:37;;;;;;;;;;;20.30;39.70;;;;;;5033230;28;19924;-46
2022/03/06 11:27:08;;;;;;;;;;;20.30;39.60;;;;;;5049167;28;19924;-44
2022/03/06 11:29:40;;;;;;;;;;;20.30;39.70;;;;;;5030336;28;19925;-44
2022/03/06 11:32:07;;;;;;;;;;;20.30;39.70;;;;;;5031347;28;19924;-44
2022/03/06 11:34:35;;;;;;;;;;;20.30;39.80;;;;;;5053886;28;20279;-46
2022/03/06 11:37:06;;;;;;;;;;;20.30;39.80;;;;;;5035089;28;19920;-44
2022/03/06 11:39:49;;;;;;;;;;;20.30;39.90;;;;;;5044738;28;19928;-45
2022/03/06 11:42:35;;;;;;;;;;;20.40;40.00;;;;;;5045672;28;19920;-48
2022/03/06 11:45:01;;;;;;;;;;;20.40;40.10;;;;;;5038178;28;19920;-45
2022/03/06 11:47:38;;;;;;;;;;;20.40;40.10;;;;;;5056574;28;19956;-42
2022/03/06 11:50:05;;;;;;;;;;;20.40;40.30;;;;;;5027648;28;20361;-49
2022/03/06 11:52:32;;;;;;;;;;;20.40;40.20;;;;;;5035007;28;20437;-49
2022/03/06 11:55:01;;;;;;;;;;;20.40;40.30;;;;;;5036272;28;20426;-45
2022/03/06 11:57:37;;;;;;;;;;;20.40;40.40;;;;;;5045476;28;20255;-46
2022/03/06 12:00:19;;;;;;;;;;;20.40;40.40;;;;;;5050646;28;19924;-48
2022/03/06 12:02:46;;;;;;;;;;;20.50;40.50;;;;;;5057330;28;20460;-45
2022/03/06 12:05:16;;;;;;;;;;;20.50;40.50;;;;;;5068394;28;19920;-46
2022/03/06 12:07:43;;;;;;;;;;;20.50;40.60;;;;;;5039258;28;20682;-45
2022/03/06 12:10:11;;;;;;;;;;;20.60;40.70;;;;;;5042903;28;19920;-45
2022/03/06 12:12:38;;;;;;;;;;;20.50;40.60;;;;;;5036041;28;19997;-47
2022/03/06 12:15:12;;;;;;;;;;;20.50;40.60;;;;;;5030998;28;19968;-44
2022/03/06 12:17:39;;;;;;;;;;;20.60;40.70;;;;;;5050006;28;20340;-44
2022/03/06 12:20:15;;;;;;;;;;;20.60;40.80;;;;;;5043611;28;19928;-45
2022/03/06 12:22:46;;;;;;;;;;;20.60;40.80;;;;;;5045345;28;20352;-42
2022/03/06 12:25:29;;;;;;;;;;;20.60;40.90;;;;;;5055192;28;19929;-46
2022/03/06 12:28:16;;;;;;;;;;;20.60;40.90;;;;;;5036149;28;19924;-47
2022/03/06 12:30:44;;;;;;;;;;;20.70;41.00;;;;;;5068204;28;19971;-44
2022/03/06 12:33:33;;;;;;;;;;;20.60;40.90;;;;;;5035958;28;20019;-45
2022/03/06 12:36:24;;;;;;;;;;;20.60;40.90;;;;;;5044554;28;20740;-42
2022/03/06 12:38:56;;;;;;;;;;;20.60;40.90;;;;;;5045505;28;19920;-47
2022/03/06 12:41:24;;;;;;;;;;;20.70;41.00;;;;;;5047151;28;19974;-47
2022/03/06 12:43:57;;;;;;;;;;;20.70;41.00;;;;;;5045284;28;19924;-45
2022/03/06 12:46:24;;;;;;;;;;;20.70;41.00;;;;;;5049598;28;19955;-42
2022/03/06 12:48:51;;;;;;;;;;;20.70;41.00;;;;;;5045467;28;20012;-43
2022/03/06 12:51:27;;;;;;;;;;;20.70;41.10;;;;;;5052535;28;19928;-45
2022/03/06 12:53:54;;;;;;;;;;;20.70;41.00;;;;;;5048726;28;20011;-43
2022/03/06 12:56:45;;;;;;;;;;;20.70;41.10;;;;;;5035938;28;19925;-44
2022/03/06 12:59:17;;;;;;;;;;;20.80;41.20;;;;;;5018097;28;19968;-45
2022/03/06 13:01:45;;;;;;;;;;;20.70;41.10;;;;;;5037598;28;20007;-42
2022/03/06 13:04:12;;;;;;;;;;;20.70;41.10;;;;;;5047375;28;19991;-46
2022/03/06 13:06:39;;;;;;;;;;;20.70;41.00;;;;;;5047933;28;20015;-44
2022/03/06 13:09:06;;;;;;;;;;;20.70;41.00;;;;;;5063531;28;20450;-46
2022/03/06 13:11:38;;;;;;;;;;;20.70;41.00;;;;;;5031774;28;20263;-44
2022/03/06 13:14:06;;;;;;;;;;;20.70;41.00;;;;;;5045878;28;19974;-43
2022/03/06 13:16:37;;;;;;;;;;;20.70;41.00;;;;;;5040842;28;19929;-46
2022/03/06 13:19:05;;;;;;;;;;;20.70;41.10;;;;;;5040711;28;20047;-42
2022/03/06 13:21:31;;;;;;;;;;;20.80;41.20;;;;;;5049798;28;19972;-45
2022/03/06 13:24:03;;;;;;;;;;;20.80;41.10;;;;;;5065558;28;19924;-49
2022/03/06 13:26:30;;;;;;;;;;;20.80;41.10;;;;;;5046367;28;19926;-43
2022/03/06 13:28:56;;;;;;;;;;;20.80;41.20;;;;;;5068601;28;20017;-46
2022/03/06 13:31:23;;;;;;;;;;;20.80;41.20;;;;;;5051446;28;20336;-44
2022/03/06 13:34:04;;;;;;;;;;;20.80;41.20;;;;;;5048124;28;19920;-43
2022/03/06 13:36:31;;;;;;;;;;;20.80;41.20;;;;;;5044486;28;19970;-42
2022/03/06 13:39:01;;;;;;;;;;;20.80;41.20;;;;;;5042864;28;19925;-43
2022/03/06 13:41:28;;;;;;;;;;;20.80;41.20;;;;;;5035703;28;19963;-44
2022/03/06 13:43:55;;;;;;;;;;;20.80;41.20;;;;;;5039081;28;19940;-45
2022/03/06 13:46:23;;;;;;;;;;;20.80;41.20;;;;;;5048248;28;19921;-46
2022/03/06 13:48:50;;;;;;;;;;;20.80;41.20;;;;;;5039398;28;19921;-47
2022/03/06 13:51:23;;;;;;;;;;;20.80;41.10;;;;;;5040823;28;20378;-43
2022/03/06 13:53:54;;;;;;;;;;;20.80;41.10;;;;;;5048880;28;19925;-42
2022/03/06 13:56:27;;;;;;;;;;;20.80;41.10;;;;;;5044152;28;19926;-44
2022/03/06 13:58:54;;;;;;;;;;;20.80;41.00;;;;;;5042059;28;19932;-46
2022/03/06 14:01:21;;;;;;;;;;;20.80;41.10;;;;;;5041037;28;19921;-44
2022/03/06 14:03:47;;;;;;;;;;;20.80;41.00;;;;;;5036553;28;20015;-43
2022/03/06 14:06:14;;;;;;;;;;;20.70;40.90;;;;;;5058110;28;19931;-48
2022/03/06 14:08:44;;;;;;;;;;;20.70;40.90;;;;;;5055842;28;19924;-44
2022/03/06 14:11:22;;;;;;;;;;;20.70;40.90;;;;;;5040436;28;20183;-44
2022/03/06 14:13:51;;;;;;;;;;;20.70;40.90;;;;;;5033937;28;19921;-47
2022/03/06 14:16:25;;;;;;;;;;;20.70;40.80;;;;;;5044050;28;19990;-47
2022/03/06 14:18:52;;;;;;;;;;;20.80;41.00;;;;;;5033489;28;19936;-45
2022/03/06 14:21:19;;;;;;;;;;;20.70;40.80;;;;;;5039630;28;19927;-43
2022/03/06 14:23:48;;;;;;;;;;;20.70;40.80;;;;;;5036788;28;20066;-50